Time;durP1;ratioP1;P1;durP2;ratioP2;P2;SDS_P1;SDS_P2;PMS_P1;PMS_P2;Temp;Humidity;BMP_temperature;BMP_pressure;BME280_temperature;BME280_humidity;BME280_pressure;Samples;Min_cycle;Max_cycle;Signal;HPM_P1;HPM_P2
2023/07/24 00:00:59;;;;;;;19.33;8.25;;;;;;;;;;6264378;22;20166;-91
2023/07/24 00:04:06;;;;;;;16.98;8.68;;;;;;;;;;6264326;22;20166;-92
2023/07/24 00:07:13;;;;;;;20.02;9.00;;;;;;;;;;6262995;22;20205;-93
2023/07/24 00:10:18;;;;;;;18.27;8.75;;;;;;;;;;6263224;22;20190;-92
2023/07/24 00:13:24;;;;;;;19.27;8.98;;;;;;;;;;6263298;23;20151;-92
2023/07/24 00:16:30;;;;;;;20.25;8.70;;;;;;;;;;6265207;22;20265;-93
2023/07/24 00:19:36;;;;;;;19.10;8.75;;;;;;;;;;6264218;23;20170;-92
2023/07/24 00:22:43;;;;;;;17.33;8.48;;;;;;;;;;6264746;22;20150;-90
2023/07/24 00:25:48;;;;;;;18.38;8.82;;;;;;;;;;6264486;22;20189;-91
2023/07/24 00:28:56;;;;;;;23.05;8.93;;;;;;;;;;6265929;23;20167;-93
2023/07/24 00:36:17;;;;;;;17.88;8.25;;;;;;;;;;6266130;23;20154;-91
2023/07/24 00:39:28;;;;;;;24.85;9.20;;;;;;;;;;6266445;22;20186;-93
2023/07/24 00:42:35;;;;;;;18.98;8.30;;;;;;;;;;6265818;22;20175;-93
2023/07/24 00:45:42;;;;;;;18.52;8.60;;;;;;;;;;6266307;22;20208;-91
2023/07/24 00:48:48;;;;;;;22.10;8.93;;;;;;;;;;6267243;22;20183;-90
2023/07/24 00:51:54;;;;;;;20.08;8.73;;;;;;;;;;6268022;22;20158;-90
2023/07/24 00:55:01;;;;;;;23.90;8.90;;;;;;;;;;6269182;22;20156;-92
2023/07/24 00:58:07;;;;;;;19.77;8.60;;;;;;;;;;6267231;22;20198;-92
2023/07/24 01:01:15;;;;;;;19.20;8.05;;;;;;;;;;6267627;22;20145;-90
2023/07/24 01:04:20;;;;;;;20.65;9.07;;;;;;;;;;6267930;22;20209;-91
2023/07/24 01:07:26;;;;;;;19.73;7.82;;;;;;;;;;6267164;22;20226;-94
2023/07/24 01:10:38;;;;;;;22.33;8.90;;;;;;;;;;6267902;22;20162;-89
2023/07/24 01:13:47;;;;;;;19.60;8.57;;;;;;;;;;6266704;22;20167;-92
2023/07/24 01:16:54;;;;;;;18.42;8.50;;;;;;;;;;6266529;22;20590;-91
2023/07/24 01:20:02;;;;;;;17.95;7.88;;;;;;;;;;6265641;23;20253;-89
2023/07/24 01:23:25;;;;;;;20.73;8.73;;;;;;;;;;6264408;22;20166;-93
2023/07/24 01:26:33;;;;;;;18.95;8.43;;;;;;;;;;6265201;23;20195;-92
2023/07/24 01:29:38;;;;;;;17.75;8.65;;;;;;;;;;6264593;22;20185;-92
2023/07/24 01:37:00;;;;;;;19.52;8.05;;;;;;;;;;6265525;22;20182;-92
2023/07/24 01:40:06;;;;;;;22.15;8.30;;;;;;;;;;6265527;22;20170;-94
2023/07/24 01:43:14;;;;;;;20.85;8.68;;;;;;;;;;6265066;22;20274;-89
2023/07/24 01:46:19;;;;;;;16.25;7.97;;;;;;;;;;6266868;22;20166;-93
2023/07/24 01:49:25;;;;;;;15.85;8.18;;;;;;;;;;6265121;22;20617;-91
2023/07/24 01:52:30;;;;;;;18.00;8.13;;;;;;;;;;6265513;22;20167;-93
2023/07/24 01:55:35;;;;;;;20.95;8.45;;;;;;;;;;6265422;22;20614;-89
2023/07/24 01:58:43;;;;;;;20.20;8.02;;;;;;;;;;6265616;22;20522;-91
2023/07/24 02:01:49;;;;;;;19.52;8.10;;;;;;;;;;6266332;23;20200;-90
2023/07/24 02:04:54;;;;;;;19.23;8.45;;;;;;;;;;6266094;23;20251;-92
2023/07/24 02:07:59;;;;;;;24.58;8.25;;;;;;;;;;6264931;22;20194;-90
2023/07/24 02:11:05;;;;;;;19.25;8.27;;;;;;;;;;6265775;22;20150;-92
2023/07/24 02:14:13;;;;;;;17.80;8.73;;;;;;;;;;6265485;22;20159;-92
2023/07/24 02:17:19;;;;;;;17.27;7.88;;;;;;;;;;6264696;22;20194;-91
2023/07/24 02:20:24;;;;;;;19.98;8.48;;;;;;;;;;6265773;22;20147;-90
2023/07/24 02:23:30;;;;;;;19.02;8.63;;;;;;;;;;6265284;22;20218;-90
2023/07/24 02:26:35;;;;;;;21.33;8.70;;;;;;;;;;6265360;22;20210;-93
2023/07/24 02:29:43;;;;;;;19.25;9.00;;;;;;;;;;6266150;22;20154;-91
2023/07/24 02:32:49;;;;;;;20.05;8.88;;;;;;;;;;6265361;22;20209;-91
2023/07/24 02:35:55;;;;;;;20.55;8.45;;;;;;;;;;6264901;22;20158;-92
2023/07/24 02:42:33;;;;;;;20.17;8.88;;;;;;;;;;6264757;22;20148;-90
2023/07/24 02:45:40;;;;;;;17.83;8.30;;;;;;;;;;6264690;22;20154;-91
2023/07/24 02:52:26;;;;;;;19.88;9.05;;;;;;;;;;6264755;23;20201;-90
2023/07/24 02:55:31;;;;;;;18.13;8.60;;;;;;;;;;6266769;23;20188;-91
2023/07/24 02:58:36;;;;;;;18.10;8.50;;;;;;;;;;6265585;22;20270;-91
2023/07/24 03:01:43;;;;;;;17.00;7.90;;;;;;;;;;6263792;22;20166;-92
2023/07/24 03:04:49;;;;;;;19.52;7.82;;;;;;;;;;6265738;22;20166;-92
2023/07/24 03:07:54;;;;;;;21.35;8.18;;;;;;;;;;6263395;23;20265;-91
2023/07/24 03:10:59;;;;;;;18.35;8.35;;;;;;;;;;6264507;22;20194;-90
2023/07/24 03:14:05;;;;;;;18.85;8.23;;;;;;;;;;6263571;22;20166;-91
2023/07/24 03:17:12;;;;;;;16.13;8.07;;;;;;;;;;6263976;22;20218;-91
2023/07/24 03:20:19;;;;;;;20.52;8.48;;;;;;;;;;6265418;22;20221;-92
2023/07/24 03:23:25;;;;;;;18.50;8.48;;;;;;;;;;6263751;22;20165;-91
2023/07/24 03:26:31;;;;;;;18.05;8.25;;;;;;;;;;6263953;22;20186;-93
2023/07/24 03:29:37;;;;;;;18.52;8.13;;;;;;;;;;6265061;22;20166;-90
2023/07/24 03:32:45;;;;;;;15.95;7.55;;;;;;;;;;6265413;22;20202;-92
2023/07/24 03:35:51;;;;;;;20.30;7.68;;;;;;;;;;6264718;22;20186;-91
2023/07/24 03:38:58;;;;;;;21.55;8.43;;;;;;;;;;6265255;23;20154;-91
2023/07/24 03:42:04;;;;;;;18.63;8.35;;;;;;;;;;6264497;22;20170;-93
2023/07/24 03:45:10;;;;;;;21.17;8.38;;;;;;;;;;6265523;22;20161;-91
2023/07/24 03:48:17;;;;;;;16.10;7.80;;;;;;;;;;6266492;23;20257;-90
2023/07/24 03:51:23;;;;;;;17.08;7.72;;;;;;;;;;6261744;22;20234;-94
2023/07/24 03:54:28;;;;;;;19.73;8.18;;;;;;;;;;6267855;23;20170;-93
2023/07/24 03:57:34;;;;;;;17.83;8.15;;;;;;;;;;6265451;22;20171;-90
2023/07/24 04:00:40;;;;;;;24.85;8.45;;;;;;;;;;6263003;22;20294;-90
2023/07/24 04:03:47;;;;;;;19.33;8.10;;;;;;;;;;6264658;22;20188;-91
2023/07/24 04:06:53;;;;;;;18.60;8.02;;;;;;;;;;6262578;23;20169;-91
2023/07/24 04:09:58;;;;;;;19.35;8.20;;;;;;;;;;6262899;23;20215;-92
2023/07/24 04:13:03;;;;;;;17.48;7.50;;;;;;;;;;6262599;22;20170;-91
2023/07/24 04:16:09;;;;;;;18.15;7.88;;;;;;;;;;6262025;23;20186;-90
2023/07/24 04:19:16;;;;;;;19.13;7.90;;;;;;;;;;6261308;23;20162;-91
2023/07/24 04:22:22;;;;;;;19.38;8.20;;;;;;;;;;6263034;22;20163;-92
2023/07/24 04:25:28;;;;;;;18.13;8.18;;;;;;;;;;6263438;22;20170;-91
2023/07/24 04:28:34;;;;;;;22.48;8.32;;;;;;;;;;6246507;22;20266;-91
2023/07/24 04:31:39;;;;;;;20.08;8.35;;;;;;;;;;6246693;23;20170;-92
2023/07/24 04:34:47;;;;;;;18.63;8.45;;;;;;;;;;6244831;23;20167;-91
2023/07/24 04:37:53;;;;;;;24.92;8.98;;;;;;;;;;6245894;23;20169;-91
2023/07/24 04:40:58;;;;;;;32.65;10.45;;;;;;;;;;6246317;22;20170;-91
2023/07/24 04:44:03;;;;;;;20.38;8.82;;;;;;;;;;6247106;22;20179;-92
2023/07/24 04:47:09;;;;;;;17.98;7.75;;;;;;;;;;6245551;22;20229;-92
2023/07/24 04:50:16;;;;;;;18.38;7.78;;;;;;;;;;6245609;23;20170;-91
2023/07/24 04:53:22;;;;;;;20.55;8.00;;;;;;;;;;6246614;22;20150;-90
2023/07/24 04:56:28;;;;;;;15.70;8.20;;;;;;;;;;6244918;22;20162;-93
2023/07/24 04:59:34;;;;;;;20.17;8.35;;;;;;;;;;6245971;23;20170;-91
2023/07/24 05:02:39;;;;;;;20.20;8.00;;;;;;;;;;6245522;22;20194;-90
2023/07/24 05:05:57;;;;;;;17.95;8.18;;;;;;;;;;6246155;23;20151;-91
2023/07/24 05:09:04;;;;;;;16.40;7.43;;;;;;;;;;6245847;22;20265;-90
2023/07/24 05:12:09;;;;;;;16.75;7.95;;;;;;;;;;6243604;23;20216;-89
2023/07/24 05:15:16;;;;;;;18.25;7.55;;;;;;;;;;6247159;22;20175;-91
